Time;durP1;ratioP1;P1;durP2;ratioP2;P2;SDS_P1;SDS_P2;PMS_P1;PMS_P2;Temp;Humidity;BMP_temperature;BMP_pressure;BME280_temperature;BME280_humidity;BME280_pressure;Samples;Min_cycle;Max_cycle;Signal;HPM_P1;HPM_P2
2024/02/28 00:01:29;;;;;;;21.67;15.27;;;5.30;99.90;;;;;;5051894;28;20446;-74
2024/02/28 00:04:15;;;;;;;21.33;15.00;;;5.20;99.90;;;;;;5052932;28;20437;-74
2024/02/28 00:07:01;;;;;;;20.05;14.40;;;5.10;99.90;;;;;;5054519;28;20612;-75
2024/02/28 00:09:47;;;;;;;24.52;16.85;;;5.10;99.90;;;;;;5057270;28;20209;-75
2024/02/28 00:12:34;;;;;;;21.73;16.10;;;5.10;99.90;;;;;;5055841;28;20209;-75
2024/02/28 00:15:19;;;;;;;21.67;14.73;;;5.00;99.90;;;;;;5056818;28;20224;-74
2024/02/28 00:18:06;;;;;;;25.15;16.27;;;5.00;99.90;;;;;;5055729;28;20275;-76
2024/02/28 00:20:54;;;;;;;20.95;15.63;;;5.00;99.90;;;;;;5051018;28;20217;-74
2024/02/28 00:23:39;;;;;;;20.93;13.80;;;5.10;99.90;;;;;;5049216;28;20209;-75
2024/02/28 00:26:25;;;;;;;21.43;15.77;;;5.00;99.90;;;;;;5052403;28;21130;-75
2024/02/28 00:29:11;;;;;;;20.88;14.90;;;5.00;99.90;;;;;;5053482;28;20574;-75
2024/02/28 00:31:56;;;;;;;22.33;16.98;;;4.90;99.90;;;;;;5053200;28;20225;-75
2024/02/28 00:34:44;;;;;;;20.67;14.35;;;5.00;99.90;;;;;;5056887;28;20226;-75
2024/02/28 00:37:29;;;;;;;23.00;16.15;;;4.90;99.90;;;;;;5043553;28;20232;-75
2024/02/28 00:40:15;;;;;;;22.23;15.00;;;4.80;99.90;;;;;;5042466;28;20233;-75
2024/02/28 00:43:01;;;;;;;22.27;15.02;;;4.90;99.90;;;;;;5045663;28;20288;-73
2024/02/28 00:45:47;;;;;;;25.00;16.33;;;4.80;99.90;;;;;;5052141;28;20231;-75
2024/02/28 00:48:32;;;;;;;21.15;15.25;;;4.70;99.90;;;;;;5054561;28;20692;-73
2024/02/28 00:51:19;;;;;;;23.00;15.05;;;4.70;99.90;;;;;;5043629;28;20331;-75
2024/02/28 00:54:05;;;;;;;18.35;13.68;;;4.80;99.90;;;;;;5042908;28;20246;-75
2024/02/28 00:56:51;;;;;;;25.00;15.07;;;4.70;99.90;;;;;;5045550;28;20234;-73
2024/02/28 00:59:36;;;;;;;21.00;15.82;;;4.60;99.90;;;;;;5047857;28;20216;-75
2024/02/28 01:02:22;;;;;;;21.85;15.00;;;4.60;99.90;;;;;;5051957;28;20316;-76
2024/02/28 01:05:08;;;;;;;20.60;15.93;;;4.40;99.90;;;;;;5053013;28;20228;-75
2024/02/28 01:07:56;;;;;;;22.00;15.43;;;4.40;99.90;;;;;;5047533;28;20752;-75
2024/02/28 01:10:42;;;;;;;22.40;13.75;;;4.30;99.90;;;;;;5050996;28;20655;-74
2024/02/28 01:13:28;;;;;;;19.40;15.00;;;4.40;99.90;;;;;;5050375;28;20249;-75
2024/02/28 01:16:15;;;;;;;22.27;14.85;;;4.40;99.90;;;;;;5049619;28;20209;-75
2024/02/28 01:19:02;;;;;;;24.05;15.10;;;4.50;99.90;;;;;;5052523;28;20570;-74
2024/02/28 01:21:48;;;;;;;21.20;16.05;;;4.50;99.90;;;;;;5053949;28;20216;-75
2024/02/28 01:24:36;;;;;;;22.05;16.00;;;4.50;99.90;;;;;;5047962;28;20208;-75
2024/02/28 01:27:21;;;;;;;23.52;16.20;;;4.40;99.90;;;;;;5053299;28;20256;-74
2024/02/28 01:30:08;;;;;;;21.75;14.35;;;4.30;99.90;;;;;;5044681;28;20228;-75
2024/02/28 01:32:54;;;;;;;22.00;14.90;;;4.20;99.90;;;;;;5055452;28;20204;-74
2024/02/28 01:35:39;;;;;;;21.60;15.55;;;4.10;99.90;;;;;;5060420;28;20201;-75
2024/02/28 01:38:26;;;;;;;21.65;15.68;;;4.00;99.90;;;;;;5056083;28;20225;-75
2024/02/28 01:41:13;;;;;;;21.92;14.85;;;4.00;99.90;;;;;;5057139;28;20545;-75
2024/02/28 01:43:59;;;;;;;21.90;15.10;;;3.90;99.90;;;;;;5052962;28;20212;-74
2024/02/28 01:46:45;;;;;;;22.52;15.05;;;4.00;99.90;;;;;;5053120;28;20368;-75
2024/02/28 01:49:31;;;;;;;21.17;14.98;;;3.90;99.90;;;;;;5055078;28;20211;-74
2024/02/28 01:52:17;;;;;;;22.42;15.23;;;3.90;99.90;;;;;;5049333;28;20275;-74
2024/02/28 01:55:03;;;;;;;21.48;15.73;;;3.90;99.90;;;;;;5054887;28;20747;-75
2024/02/28 01:57:50;;;;;;;27.52;16.27;;;3.80;99.90;;;;;;5054983;28;20783;-74
2024/02/28 02:00:37;;;;;;;21.80;16.15;;;3.80;99.90;;;;;;5048212;28;20218;-75
2024/02/28 02:03:22;;;;;;;21.27;13.70;;;3.80;99.90;;;;;;5047242;28;20209;-75
2024/02/28 02:06:08;;;;;;;24.73;15.85;;;3.80;99.90;;;;;;5049218;28;20217;-75
2024/02/28 02:08:54;;;;;;;22.00;15.38;;;3.80;99.90;;;;;;5048670;28;20205;-75
2024/02/28 02:11:40;;;;;;;24.52;15.70;;;3.80;99.90;;;;;;5050449;28;20271;-75
2024/02/28 02:14:27;;;;;;;19.63;14.43;;;3.80;99.90;;;;;;5051665;28;20625;-75
2024/02/28 02:17:12;;;;;;;22.33;15.70;;;3.70;99.90;;;;;;5048052;28;20271;-74
2024/02/28 02:19:58;;;;;;;22.38;15.95;;;3.60;99.90;;;;;;5050970;28;20201;-74
2024/02/28 02:22:45;;;;;;;22.15;15.57;;;3.60;99.90;;;;;;5053063;28;20232;-75
2024/02/28 02:25:31;;;;;;;23.80;16.10;;;3.60;99.90;;;;;;5051644;28;20232;-74
2024/02/28 02:28:17;;;;;;;21.90;16.50;;;3.60;99.90;;;;;;5050681;28;20229;-75
2024/02/28 02:31:03;;;;;;;21.48;14.80;;;3.70;99.90;;;;;;5053427;28;20253;-75
2024/02/28 02:33:49;;;;;;;21.52;14.32;;;3.60;99.90;;;;;;5054951;28;20214;-75
2024/02/28 02:36:34;;;;;;;20.65;14.90;;;3.60;99.90;;;;;;5051296;28;20687;-75
2024/02/28 02:39:21;;;;;;;28.70;17.77;;;3.70;99.90;;;;;;5047427;28;20324;-75
2024/02/28 02:42:07;;;;;;;24.85;14.90;;;3.80;99.90;;;;;;5050110;28;20604;-75
2024/02/28 02:44:53;;;;;;;21.13;14.75;;;3.80;99.90;;;;;;5051478;28;20734;-75
2024/02/28 02:47:39;;;;;;;21.88;15.88;;;3.70;99.90;;;;;;5051645;28;20220;-75
2024/02/28 02:50:25;;;;;;;25.95;15.82;;;3.50;99.90;;;;;;5048575;28;20350;-75
2024/02/28 02:53:11;;;;;;;22.92;15.55;;;3.50;99.90;;;;;;5047112;28;20214;-75
2024/02/28 02:55:58;;;;;;;21.40;15.25;;;3.40;99.90;;;;;;5048686;28;20250;-75
2024/02/28 02:58:44;;;;;;;21.27;15.40;;;3.40;99.90;;;;;;5050484;28;20212;-75
2024/02/28 03:01:29;;;;;;;23.90;15.20;;;3.40;99.90;;;;;;5047294;28;20216;-75
2024/02/28 03:04:15;;;;;;;20.70;15.32;;;3.50;99.90;;;;;;5050745;28;20747;-75
2024/02/28 03:07:01;;;;;;;23.58;15.25;;;3.50;99.90;;;;;;5049788;28;20770;-75
2024/02/28 03:09:47;;;;;;;21.83;15.27;;;3.50;99.90;;;;;;5050065;28;20238;-74
2024/02/28 03:12:34;;;;;;;25.08;16.35;;;3.40;99.90;;;;;;5046993;28;20589;-74
2024/02/28 03:15:19;;;;;;;25.20;17.02;;;3.20;99.90;;;;;;5048645;28;20212;-75
2024/02/28 03:18:05;;;;;;;26.40;17.67;;;3.20;99.90;;;;;;5049917;28;20295;-74
2024/02/28 03:20:51;;;;;;;26.50;18.15;;;3.10;99.90;;;;;;5050891;28;20203;-75
2024/02/28 03:23:37;;;;;;;25.10;17.40;;;3.10;99.90;;;;;;5049628;28;20208;-74
2024/02/28 03:26:23;;;;;;;23.65;17.25;;;3.00;99.90;;;;;;5046555;28;20233;-75
2024/02/28 03:29:09;;;;;;;25.85;16.95;;;3.10;99.90;;;;;;5047696;28;20213;-75
2024/02/28 03:31:55;;;;;;;26.42;16.77;;;3.30;99.90;;;;;;5049024;28;21118;-74
2024/02/28 03:34:40;;;;;;;25.38;16.17;;;3.40;99.90;;;;;;5050101;28;20219;-75
2024/02/28 03:37:26;;;;;;;22.73;16.20;;;3.40;99.90;;;;;;5045041;28;20232;-75
2024/02/28 03:40:14;;;;;;;23.67;16.58;;;3.40;99.90;;;;;;5045654;28;20239;-75
2024/02/28 03:43:00;;;;;;;23.40;15.65;;;3.30;99.90;;;;;;5048522;28;20212;-75
2024/02/28 03:45:47;;;;;;;23.33;16.15;;;3.30;99.90;;;;;;5050750;28;20238;-75
2024/02/28 03:48:32;;;;;;;24.00;16.52;;;3.20;99.90;;;;;;5052019;28;20295;-75
2024/02/28 03:51:18;;;;;;;22.33;16.15;;;3.10;99.90;;;;;;5040740;28;20209;-74
2024/02/28 03:54:04;;;;;;;22.40;15.52;;;3.10;99.90;;;;;;5046072;28;20213;-74
2024/02/28 03:56:49;;;;;;;27.85;17.33;;;3.00;99.90;;;;;;5046405;28;20270;-75
2024/02/28 03:59:35;;;;;;;21.05;15.25;;;3.10;99.90;;;;;;5040313;28;20288;-75
2024/02/28 04:02:22;;;;;;;30.90;19.05;;;3.00;99.90;;;;;;5040984;28;20247;-75
2024/02/28 04:05:08;;;;;;;33.13;17.80;;;2.90;99.90;;;;;;5047194;28;20283;-75
2024/02/28 04:07:54;;;;;;;24.30;17.50;;;2.90;99.90;;;;;;5048075;28;20224;-75
2024/02/28 04:10:39;;;;;;;26.27;16.80;;;2.80;99.90;;;;;;5048178;28;20277;-74
2024/02/28 04:13:25;;;;;;;25.67;16.98;;;2.90;99.90;;;;;;5047297;28;20213;-75
2024/02/28 04:16:11;;;;;;;24.73;15.80;;;3.00;99.90;;;;;;5048932;28;20209;-75
2024/02/28 04:18:58;;;;;;;25.92;17.98;;;3.00;99.90;;;;;;5047558;28;20217;-75
2024/02/28 04:21:44;;;;;;;28.92;16.75;;;3.00;99.90;;;;;;5048403;28;20208;-75
2024/02/28 04:24:29;;;;;;;22.65;16.25;;;3.00;99.90;;;;;;5044098;28;20221;-75
2024/02/28 04:27:15;;;;;;;21.52;15.50;;;3.10;99.90;;;;;;5045722;28;20229;-75
2024/02/28 04:30:01;;;;;;;22.85;15.32;;;2.80;99.90;;;;;;5043640;28;20212;-75
2024/02/28 04:32:47;;;;;;;23.35;16.70;;;2.80;99.90;;;;;;5048111;28;20221;-75
2024/02/28 04:35:34;;;;;;;25.63;16.85;;;2.80;99.90;;;;;;5050195;28;20217;-74
2024/02/28 04:38:19;;;;;;;24.38;17.15;;;2.90;99.90;;;;;;5049233;28;20749;-75
2024/02/28 04:41:05;;;;;;;25.45;15.50;;;2.90;99.90;;;;;;5049331;28;20209;-74
2024/02/28 04:43:51;;;;;;;26.88;16.63;;;2.80;99.90;;;;;;5048652;28;20200;-74
2024/02/28 04:46:38;;;;;;;26.05;17.00;;;2.70;99.90;;;;;;5051198;28;20275;-74
2024/02/28 04:49:24;;;;;;;25.70;17.50;;;2.70;99.90;;;;;;5052954;28;20286;-75
2024/02/28 04:52:10;;;;;;;28.00;18.50;;;2.70;99.90;;;;;;5052991;28;20252;-75
2024/02/28 04:54:56;;;;;;;24.50;15.60;;;2.60;99.90;;;;;;5050983;28;20205;-73
2024/02/28 04:57:42;;;;;;;25.45;18.02;;;2.60;99.90;;;;;;5048731;28;20225;-74
2024/02/28 05:00:27;;;;;;;26.88;17.55;;;2.60;99.90;;;;;;5045251;28;20228;-75
2024/02/28 05:03:13;;;;;;;30.17;18.75;;;2.70;99.90;;;;;;5047023;28;20224;-74
2024/02/28 05:05:59;;;;;;;29.65;19.00;;;2.70;99.90;;;;;;5047733;28;20325;-75
2024/02/28 05:08:46;;;;;;;26.92;17.65;;;2.70;99.90;;;;;;5051212;28;20224;-75
2024/02/28 05:11:32;;;;;;;26.80;18.10;;;2.70;99.90;;;;;;5045529;28;20969;-74
2024/02/28 05:14:17;;;;;;;27.63;19.15;;;2.70;99.90;;;;;;5049989;28;20212;-75
2024/02/28 05:17:03;;;;;;;23.15;16.95;;;2.90;99.90;;;;;;5054387;28;20244;-75
2024/02/28 05:19:48;;;;;;;27.73;18.38;;;2.90;99.90;;;;;;5050645;28;20212;-75
2024/02/28 05:22:34;;;;;;;23.27;16.38;;;2.90;99.90;;;;;;5051894;28;20251;-75
2024/02/28 05:25:21;;;;;;;25.33;17.92;;;2.90;99.90;;;;;;5051318;28;20739;-75
2024/02/28 05:28:07;;;;;;;24.63;17.33;;;2.80;99.90;;;;;;5055348;28;20229;-75
2024/02/28 05:30:52;;;;;;;26.15;18.45;;;2.90;99.90;;;;;;5048636;28;21328;-74
2024/02/28 05:33:38;;;;;;;27.55;18.38;;;2.90;99.90;;;;;;5046735;28;20212;-74
2024/02/28 05:36:25;;;;;;;23.50;17.08;;;3.10;99.90;;;;;;5050465;28;20976;-74
2024/02/28 05:39:10;;;;;;;27.83;17.90;;;3.20;99.90;;;;;;5050666;28;20254;-75
2024/02/28 05:41:58;;;;;;;26.98;17.50;;;3.20;99.90;;;;;;5047455;28;20216;-74
2024/02/28 05:44:43;;;;;;;28.17;18.75;;;3.20;99.90;;;;;;5045154;28;20208;-75
2024/02/28 05:47:29;;;;;;;25.95;17.55;;;3.30;99.90;;;;;;5051107;28;20310;-75
2024/02/28 05:50:15;;;;;;;25.50;18.48;;;3.30;99.90;;;;;;5050573;28;20208;-74
2024/02/28 05:53:01;;;;;;;27.55;17.85;;;3.40;99.90;;;;;;5049266;28;20343;-74
2024/02/28 05:55:46;;;;;;;28.48;17.85;;;3.40;99.90;;;;;;5049002;28;20213;-75
2024/02/28 05:58:34;;;;;;;28.25;18.48;;;3.40;99.90;;;;;;5045714;28;20587;-75
2024/02/28 06:01:19;;;;;;;29.45;17.25;;;3.50;99.90;;;;;;5044845;28;20243;-74
2024/02/28 06:04:05;;;;;;;30.85;18.58;;;3.50;99.90;;;;;;5049607;28;20220;-75
2024/02/28 06:06:51;;;;;;;30.20;20.48;;;3.70;99.90;;;;;;5045772;28;20233;-73
2024/02/28 06:09:37;;;;;;;34.75;21.90;;;3.60;99.90;;;;;;5048691;28;20212;-74
2024/02/28 06:12:23;;;;;;;31.35;20.75;;;3.60;99.90;;;;;;5045097;28;20217;-75
2024/02/28 06:15:11;;;;;;;34.75;22.67;;;3.70;99.90;;;;;;5052621;28;20221;-74
2024/02/28 06:17:58;;;;;;;37.92;23.17;;;3.70;99.90;;;;;;5040217;28;20578;-75
2024/02/28 06:20:43;;;;;;;45.75;25.20;;;3.70;99.90;;;;;;5052730;28;20707;-73
2024/02/28 06:23:29;;;;;;;39.15;21.88;;;3.80;99.90;;;;;;5052593;28;20267;-73
2024/02/28 06:26:16;;;;;;;34.53;23.67;;;3.90;99.90;;;;;;5048671;28;20255;-74
2024/02/28 06:29:04;;;;;;;32.25;22.95;;;4.00;99.90;;;;;;5051702;28;20242;-74
2024/02/28 06:31:53;;;;;;;37.22;21.70;;;4.00;99.90;;;;;;5047698;28;20213;-74
2024/02/28 06:34:38;;;;;;;31.88;20.77;;;4.20;99.90;;;;;;5049816;28;20214;-75
2024/02/28 06:37:24;;;;;;;35.63;21.27;;;4.20;99.90;;;;;;5050041;28;20220;-74
2024/02/28 06:40:10;;;;;;;39.03;23.30;;;4.10;99.90;;;;;;5050112;28;20205;-74
2024/02/28 06:42:56;;;;;;;36.63;23.40;;;4.10;99.90;;;;;;5049058;28;20328;-74
2024/02/28 06:45:41;;;;;;;44.05;24.40;;;4.20;99.90;;;;;;5050308;28;20222;-75
2024/02/28 06:48:29;;;;;;;42.90;25.77;;;4.30;99.90;;;;;;5045173;28;20851;-73
2024/02/28 06:51:16;;;;;;;40.35;24.33;;;4.30;99.90;;;;;;5049455;28;20213;-75
2024/02/28 06:54:03;;;;;;;41.78;25.35;;;4.30;99.90;;;;;;5051229;28;20207;-76
2024/02/28 06:56:48;;;;;;;46.42;26.50;;;4.40;99.90;;;;;;5046414;28;20239;-74
2024/02/28 06:59:34;;;;;;;45.80;26.95;;;4.50;99.90;;;;;;5050318;28;20341;-75
2024/02/28 07:02:20;;;;;;;46.35;26.05;;;4.50;99.90;;;;;;5050452;28;20584;-75
2024/02/28 07:05:07;;;;;;;42.97;24.70;;;4.60;99.90;;;;;;5051265;28;20567;-73
2024/02/28 07:07:53;;;;;;;47.05;26.15;;;4.70;99.90;;;;;;5050401;28;20365;-75
2024/02/28 07:10:43;;;;;;;52.78;27.52;;;4.70;99.90;;;;;;5043951;28;20340;-74
2024/02/28 07:13:28;;;;;;;45.38;27.15;;;4.70;99.90;;;;;;5048575;28;20316;-74
2024/02/28 07:16:14;;;;;;;43.72;25.77;;;4.80;99.90;;;;;;5043156;28;20284;-75
2024/02/28 07:19:00;;;;;;;44.95;25.55;;;4.80;99.90;;;;;;5042331;28;20213;-75
2024/02/28 07:21:47;;;;;;;39.17;24.95;;;4.80;99.90;;;;;;5048391;28;20217;-75
2024/02/28 07:24:33;;;;;;;43.53;26.00;;;4.90;99.90;;;;;;5049280;28;20234;-74
2024/02/28 07:27:18;;;;;;;49.90;27.85;;;5.00;99.90;;;;;;5047422;28;20648;-75
2024/02/28 07:30:06;;;;;;;47.95;27.02;;;4.90;99.90;;;;;;5047824;28;20574;-74
2024/02/28 07:32:52;;;;;;;48.97;28.10;;;5.00;99.90;;;;;;5048973;28;20222;-74
2024/02/28 07:35:45;;;;;;;50.45;28.15;;;5.00;99.90;;;;;;5046448;28;20280;-75
2024/02/28 07:38:32;;;;;;;41.70;26.30;;;5.00;99.90;;;;;;5048018;28;20228;-74
2024/02/28 07:41:18;;;;;;;52.55;28.25;;;4.90;99.90;;;;;;5051539;28;20215;-75
2024/02/28 07:44:04;;;;;;;55.67;28.75;;;5.00;99.90;;;;;;5048650;28;20221;-74
2024/02/28 07:46:51;;;;;;;50.53;28.17;;;5.00;99.90;;;;;;5047626;28;20371;-74
2024/02/28 07:49:36;;;;;;;46.72;27.80;;;5.10;99.90;;;;;;5048691;28;20222;-75
2024/02/28 07:52:22;;;;;;;53.55;29.77;;;5.10;99.90;;;;;;5044450;28;20296;-74
2024/02/28 07:55:10;;;;;;;48.00;26.52;;;5.10;99.90;;;;;;5043556;28;20248;-74
2024/02/28 07:57:55;;;;;;;49.67;25.55;;;5.20;99.90;;;;;;5044958;28;20248;-75
2024/02/28 08:00:43;;;;;;;49.90;28.42;;;5.20;99.90;;;;;;5044308;28;20213;-75
2024/02/28 08:03:28;;;;;;;49.83;29.33;;;5.30;99.90;;;;;;5043012;28;20248;-75
2024/02/28 08:06:16;;;;;;;49.05;27.02;;;5.30;99.90;;;;;;5047801;28;20226;-75
2024/02/28 08:09:04;;;;;;;46.95;28.77;;;5.30;99.90;;;;;;5048057;28;20348;-75
2024/02/28 08:11:51;;;;;;;40.08;23.35;;;5.30;99.90;;;;;;5051980;28;20215;-73
2024/02/28 08:14:36;;;;;;;41.30;25.63;;;5.40;99.90;;;;;;5047537;28;20230;-74
2024/02/28 08:17:22;;;;;;;44.50;25.60;;;5.50;99.90;;;;;;5052397;28;20481;-75
2024/02/28 08:20:09;;;;;;;40.53;25.35;;;5.50;99.90;;;;;;5053064;28;21397;-75
2024/02/28 08:22:57;;;;;;;40.25;22.00;;;5.50;99.90;;;;;;5050791;28;21288;-74
2024/02/28 08:25:42;;;;;;;33.08;22.55;;;5.50;99.90;;;;;;5050260;28;20712;-74
2024/02/28 08:28:29;;;;;;;36.58;23.45;;;5.50;99.90;;;;;;5052351;28;20271;-75
2024/02/28 08:31:15;;;;;;;39.60;23.90;;;5.60;99.90;;;;;;5051834;28;20209;-75
2024/02/28 08:34:04;;;;;;;39.70;22.73;;;5.60;99.90;;;;;;5053919;28;20815;-75
2024/02/28 08:36:50;;;;;;;35.00;22.03;;;5.70;99.90;;;;;;5053815;28;20254;-75
2024/02/28 08:39:35;;;;;;;37.10;22.33;;;5.70;99.90;;;;;;5049747;28;20454;-74
2024/02/28 08:42:21;;;;;;;38.00;23.10;;;5.70;99.90;;;;;;5050647;28;20454;-74
2024/02/28 08:45:09;;;;;;;37.63;23.80;;;5.60;99.90;;;;;;5050722;28;20448;-74
2024/02/28 08:47:57;;;;;;;36.95;23.98;;;5.40;99.90;;;;;;5053289;28;20329;-75
2024/02/28 08:50:43;;;;;;;36.60;23.37;;;5.50;99.90;;;;;;5053386;28;20211;-75
2024/02/28 08:53:28;;;;;;;46.70;26.02;;;5.50;99.90;;;;;;5048202;28;20513;-75
2024/02/28 08:56:14;;;;;;;41.67;26.23;;;5.60;99.90;;;;;;5046583;28;20252;-74
2024/02/28 08:59:00;;;;;;;45.88;27.90;;;5.70;99.90;;;;;;5048706;28;21079;-75
2024/02/28 09:01:47;;;;;;;44.65;25.95;;;5.80;99.90;;;;;;5050364;28;20275;-75
2024/02/28 09:04:33;;;;;;;46.45;28.42;;;5.80;99.90;;;;;;5050713;28;20284;-75
2024/02/28 09:07:19;;;;;;;38.10;24.70;;;5.90;99.90;;;;;;5047894;28;20295;-75
2024/02/28 09:10:06;;;;;;;43.27;25.33;;;5.90;99.90;;;;;;5046662;28;20463;-75
2024/02/28 09:12:51;;;;;;;38.70;23.57;;;6.00;99.90;;;;;;5052637;28;20453;-75
2024/02/28 09:15:37;;;;;;;41.17;25.70;;;6.00;99.90;;;;;;5048871;28;21349;-74
2024/02/28 09:18:24;;;;;;;45.97;27.45;;;6.00;99.90;;;;;;5048953;28;20254;-75
2024/02/28 09:21:10;;;;;;;46.35;26.80;;;6.10;99.90;;;;;;5054412;28;20284;-75
2024/02/28 09:23:55;;;;;;;42.20;26.13;;;6.10;99.90;;;;;;5051567;28;20849;-75
2024/02/28 09:26:41;;;;;;;45.33;27.40;;;6.20;99.90;;;;;;5050844;28;20472;-74
2024/02/28 09:29:27;;;;;;;45.80;27.93;;;6.30;99.90;;;;;;5051075;28;20806;-74
2024/02/28 09:32:14;;;;;;;49.23;29.10;;;6.30;99.90;;;;;;5048655;28;20455;-73
2024/02/28 09:35:01;;;;;;;46.40;27.03;;;6.30;99.90;;;;;;5046318;28;20465;-73
2024/02/28 09:37:47;;;;;;;45.93;28.00;;;6.30;99.90;;;;;;5052183;28;21059;-74
2024/02/28 09:40:33;;;;;;;46.47;27.30;;;6.30;99.90;;;;;;5051405;28;20453;-74
2024/02/28 09:43:26;;;;;;;44.70;27.15;;;6.30;99.90;;;;;;5048597;28;20209;-74
2024/02/28 09:46:12;;;;;;;45.43;28.40;;;6.40;99.90;;;;;;5049488;28;20238;-75
2024/02/28 09:49:00;;;;;;;42.37;26.17;;;6.40;99.90;;;;;;5047509;28;20476;-73
2024/02/28 09:51:50;;;;;;;38.93;25.47;;;6.60;99.90;;;;;;5051870;28;20486;-73
2024/02/28 09:54:36;;;;;;;47.10;26.40;;;6.70;99.90;;;;;;5051082;28;20539;-73
2024/02/28 09:57:28;;;;;;;39.97;25.73;;;6.80;99.90;;;;;;5045226;28;20477;-74
2024/02/28 10:00:15;;;;;;;39.20;24.23;;;7.10;99.90;;;;;;5046047;28;20470;-74
2024/02/28 10:03:02;;;;;;;44.60;25.80;;;7.40;99.90;;;;;;5044360;28;21036;-74
2024/02/28 10:05:48;;;;;;;37.23;24.60;;;7.60;99.90;;;;;;5048023;28;20970;-75
2024/02/28 10:08:37;;;;;;;38.17;23.50;;;7.90;99.90;;;;;;5049372;28;20482;-74
2024/02/28 10:11:22;;;;;;;39.93;25.53;;;8.10;99.90;;;;;;5049029;28;20869;-74
2024/02/28 10:14:08;;;;;;;37.30;22.73;;;8.20;99.90;;;;;;5046704;28;20945;-75
2024/02/28 10:16:54;;;;;;;37.90;23.27;;;8.40;99.90;;;;;;5050827;28;21422;-74
2024/02/28 10:19:40;;;;;;;37.80;24.30;;;8.70;99.90;;;;;;5048405;28;20781;-74
2024/02/28 10:22:26;;;;;;;41.17;24.07;;;8.80;99.90;;;;;;5052752;28;20446;-74
2024/02/28 10:25:14;;;;;;;37.00;23.60;;;9.00;99.90;;;;;;5050992;28;20433;-74
2024/02/28 10:28:01;;;;;;;35.93;23.13;;;9.10;99.90;;;;;;5052182;28;20519;-74
2024/02/28 10:30:48;;;;;;;33.83;20.37;;;9.30;99.90;;;;;;5050597;28;20437;-74
2024/02/28 10:33:35;;;;;;;34.77;22.33;;;9.40;99.90;;;;;;5051486;28;20435;-74
2024/02/28 10:36:21;;;;;;;31.77;21.77;;;9.50;99.90;;;;;;5049080;28;20437;-74
2024/02/28 10:39:09;;;;;;;33.70;21.63;;;9.60;99.90;;;;;;5049289;28;20457;-74
2024/02/28 10:41:58;;;;;;;31.87;20.97;;;9.70;99.90;;;;;;5046898;28;20462;-75
2024/02/28 10:44:44;;;;;;;36.97;21.63;;;9.70;99.90;;;;;;5050246;28;20448;-74
2024/02/28 10:47:30;;;;;;;30.93;20.00;;;10.00;99.90;;;;;;5055488;28;20478;-74
2024/02/28 10:50:16;;;;;;;34.27;21.20;;;10.20;99.90;;;;;;5048822;28;20442;-74
2024/02/28 10:53:05;;;;;;;33.00;22.93;;;10.50;99.90;;;;;;5052510;28;20410;-74
2024/02/28 10:55:52;;;;;;;33.73;21.53;;;10.60;99.90;;;;;;5049940;28;20493;-74
2024/02/28 10:58:51;;;;;;;31.53;20.97;;;10.60;99.90;;;;;;5050697;28;20629;-73
2024/02/28 11:01:37;;;;;;;32.17;22.53;;;10.80;99.90;;;;;;5053130;28;20501;-74
2024/02/28 11:04:23;;;;;;;30.23;20.80;;;11.10;99.90;;;;;;5050135;28;20524;-74
2024/02/28 11:07:09;;;;;;;29.70;20.23;;;11.30;99.90;;;;;;5051947;28;20477;-74
2024/02/28 11:09:56;;;;;;;30.47;20.87;;;11.40;99.90;;;;;;5046076;28;20460;-74
2024/02/28 11:12:42;;;;;;;25.73;18.00;;;11.60;99.90;;;;;;5047742;28;20533;-74
2024/02/28 11:15:29;;;;;;;25.20;17.53;;;11.80;99.90;;;;;;5044677;28;20425;-74
2024/02/28 11:18:15;;;;;;;26.17;18.27;;;11.90;99.90;;;;;;5048090;28;21012;-74
2024/02/28 11:21:01;;;;;;;28.40;18.60;;;12.10;99.90;;;;;;5048061;28;20642;-74
2024/02/28 11:23:48;;;;;;;26.50;17.10;;;12.10;99.90;;;;;;5050930;28;20424;-74
2024/02/28 11:26:33;;;;;;;24.97;17.90;;;12.20;99.90;;;;;;5048068;28;20605;-74
2024/02/28 11:29:24;;;;;;;25.20;15.53;;;12.20;99.90;;;;;;5046217;28;20605;-75
2024/02/28 11:32:12;;;;;;;21.00;15.10;;;12.20;99.90;;;;;;5048245;28;20468;-74
2024/02/28 11:34:58;;;;;;;26.00;15.60;;;12.30;98.40;;;;;;5044055;28;20989;-74
2024/02/28 11:37:47;;;;;;;21.77;15.70;;;12.50;99.00;;;;;;5053684;28;20478;-73
2024/02/28 11:40:32;;;;;;;21.10;14.83;;;12.50;96.20;;;;;;5046219;28;20441;-74
2024/02/28 11:43:18;;;;;;;20.93;14.70;;;12.50;95.20;;;;;;5047656;28;20453;-74
2024/02/28 11:46:10;;;;;;;19.10;14.07;;;12.80;94.40;;;;;;5042676;28;21205;-74
2024/02/28 11:48:57;;;;;;;22.23;13.10;;;12.70;89.20;;;;;;5050914;28;20474;-74
2024/02/28 11:51:43;;;;;;;29.80;16.10;;;12.60;85.20;;;;;;5050435;28;20467;-74
2024/02/28 11:54:29;;;;;;;24.00;15.40;;;12.60;90.00;;;;;;5052627;28;20483;-74
2024/02/28 11:57:17;;;;;;;24.40;16.97;;;12.70;87.60;;;;;;5052089;28;20504;-74
2024/02/28 12:00:07;;;;;;;25.90;16.07;;;12.70;86.90;;;;;;5052583;28;20543;-75
2024/02/28 12:02:53;;;;;;;21.70;15.00;;;12.70;86.90;;;;;;5054701;28;20431;-74
2024/02/28 12:05:44;;;;;;;19.40;14.50;;;12.80;83.40;;;;;;5055898;28;20893;-74
2024/02/28 12:08:29;;;;;;;20.10;14.53;;;12.90;80.10;;;;;;5053494;28;20555;-75
2024/02/28 12:11:15;;;;;;;21.83;15.23;;;13.00;79.90;;;;;;5051215;28;20549;-74
2024/02/28 12:14:03;;;;;;;26.17;15.13;;;13.20;73.60;;;;;;5055089;28;20410;-74
2024/02/28 12:16:49;;;;;;;26.47;18.03;;;13.20;75.60;;;;;;5054116;28;20504;-74
2024/02/28 12:19:36;;;;;;;21.30;14.90;;;13.20;71.40;;;;;;5053402;28;20409;-74
2024/02/28 12:22:23;;;;;;;19.50;13.67;;;13.10;72.90;;;;;;5053188;28;20718;-75
2024/02/28 12:25:09;;;;;;;17.23;13.53;;;13.20;72.20;;;;;;5054409;28;20930;-75
2024/02/28 12:27:54;;;;;;;24.50;15.27;;;13.40;69.20;;;;;;5055302;28;20451;-73
2024/02/28 12:30:42;;;;;;;18.50;12.73;;;13.50;66.00;;;;;;5053064;28;20417;-75
2024/02/28 12:33:27;;;;;;;23.17;16.57;;;13.60;65.30;;;;;;5052474;28;20578;-75
2024/02/28 12:36:13;;;;;;;21.33;16.00;;;13.70;63.40;;;;;;5052962;28;20520;-75
2024/02/28 12:39:01;;;;;;;26.20;17.73;;;13.70;66.80;;;;;;5053568;28;20546;-75
2024/02/28 12:41:46;;;;;;;21.93;15.80;;;13.70;61.30;;;;;;5055909;28;20497;-74
2024/02/28 12:44:32;;;;;;;24.80;15.93;;;13.80;60.10;;;;;;5058627;28;20410;-74
2024/02/28 12:47:18;;;;;;;21.67;15.40;;;13.60;59.70;;;;;;5056569;28;20454;-74
2024/02/28 12:50:04;;;;;;;18.47;14.33;;;13.80;63.80;;;;;;5054440;28;20998;-74
2024/02/28 12:52:53;;;;;;;23.40;14.40;;;13.90;56.90;;;;;;5055669;28;20652;-75
2024/02/28 12:55:40;;;;;;;18.50;14.10;;;14.00;56.60;;;;;;5054369;28;20494;-73
2024/02/28 12:58:25;;;;;;;17.67;11.83;;;14.10;53.70;;;;;;5055206;28;20425;-74
2024/02/28 13:01:13;;;;;;;20.30;14.50;;;14.00;43.50;;;;;;5055091;28;20435;-74
2024/02/28 13:03:59;;;;;;;22.27;16.33;;;13.90;53.50;;;;;;5054682;28;20430;-75
2024/02/28 13:06:44;;;;;;;22.40;16.63;;;14.00;52.40;;;;;;5055553;28;20498;-75
2024/02/28 13:09:30;;;;;;;20.53;14.53;;;14.10;51.70;;;;;;5051734;28;20534;-75
2024/02/28 13:12:19;;;;;;;28.73;17.60;;;14.40;54.00;;;;;;5053728;28;20410;-75
2024/02/28 13:15:06;;;;;;;20.00;14.00;;;14.30;47.20;;;;;;5054457;28;20497;-75
2024/02/28 13:17:52;;;;;;;19.80;14.33;;;13.90;42.40;;;;;;5055451;28;20424;-75
2024/02/28 13:20:39;;;;;;;19.20;14.00;;;13.80;46.30;;;;;;5054216;28;20800;-75
2024/02/28 13:23:26;;;;;;;18.70;13.73;;;14.10;51.40;;;;;;5053425;28;20988;-75
2024/02/28 13:26:17;;;;;;;20.63;14.20;;;14.20;46.60;;;;;;5052855;28;20450;-74
2024/02/28 13:29:04;;;;;;;20.10;13.30;;;14.40;46.30;;;;;;5054775;28;20450;-74
2024/02/28 13:31:49;;;;;;;20.70;14.77;;;14.70;44.30;;;;;;5054026;28;20910;-75
2024/02/28 13:34:35;;;;;;;21.43;14.23;;;14.60;40.50;;;;;;5053137;28;21406;-75
2024/02/28 13:37:20;;;;;;;18.73;12.77;;;14.50;36.20;;;;;;5053167;28;20502;-75
2024/02/28 13:40:08;;;;;;;16.43;13.00;;;14.70;37.30;;;;;;5043933;28;20476;-74
2024/02/28 13:42:54;;;;;;;17.40;12.40;;;14.90;37.50;;;;;;5048156;28;20442;-73
2024/02/28 13:45:42;;;;;;;17.43;11.70;;;15.10;39.50;;;;;;5048859;28;20838;-73
2024/02/28 13:48:30;;;;;;;16.17;10.93;;;15.40;31.10;;;;;;5044742;28;20555;-73
2024/02/28 13:51:16;;;;;;;21.27;13.73;;;15.40;25.40;;;;;;5048380;28;20434;-73
2024/02/28 13:54:02;;;;;;;15.30;11.30;;;15.50;29.40;;;;;;5049739;28;20509;-72
2024/02/28 13:56:48;;;;;;;13.20;10.37;;;15.60;25.50;;;;;;5049270;28;20902;-72
2024/02/28 13:59:34;;;;;;;15.73;12.03;;;15.70;24.20;;;;;;5052665;28;20430;-72
2024/02/28 14:02:21;;;;;;;12.20;8.80;;;15.70;24.70;;;;;;5053842;28;20409;-73
2024/02/28 14:05:08;;;;;;;16.57;11.57;;;15.80;23.00;;;;;;5057040;28;20431;-72
2024/02/28 14:07:54;;;;;;;27.63;17.20;;;15.80;19.90;;;;;;5058405;28;20458;-72
2024/02/28 14:10:40;;;;;;;14.70;10.77;;;15.60;22.40;;;;;;5053985;28;20993;-72
2024/02/28 14:13:25;;;;;;;13.50;10.13;;;15.50;22.70;;;;;;5058994;28;20410;-73